Weather at Aqaba King Hussein International Airport

Public forecast

Using degrees Celsius for public forecast. Weather courtesy of forecast.io.

Current aviation weather report (METAR) for Aqaba King Hussein International Airport

Report is more than 6 hours old.

2022/11/14 15:00 (retrieved 2 years ago)

OJAQ 141500Z 35005KT 8000 NSC 27/15 Q1013 NOSIG

Aviation forecast (TAF) for Aqaba King Hussein International Airport

Forecast is more than 12 hours old.

2023/02/22 18:15 (retrieved 1 year ago)

TAF TAF OJAQ 221700Z 2218/2324 36010KT 6000 NSC PROB30 TEMPO 2310/2315 01018KT 4000 BLDU